Time,TemperatureF,DewpointF,PressureIn,WindDirection,WindDirectionDegrees,WindSpeedMPH,WindSpeedGustMPH,Humidity,HourlyPrecipIn,Conditions,Clouds,dailyrainin,SoftwareType,DateUTC
2017-02-25 00:00:00,65.7,64.5,29.85,WSW,239,1.0,1.0,96,0.00,,,0.00,Wunderground v.1.15,2017-02-25 06:00:00,
2017-02-25 00:05:00,65.6,64.4,29.86,WSW,239,0.0,1.0,96,0.00,,,0.00,Wunderground v.1.15,2017-02-25 06:05:00,
2017-02-25 00:10:00,65.6,64.4,29.86,WSW,242,0.0,0.0,96,0.00,,,0.00,Wunderground v.1.15,2017-02-25 06:10:00,
2017-02-25 00:15:00,65.5,64.3,29.86,WSW,242,0.0,0.0,96,0.00,,,0.00,Wunderground v.1.15,2017-02-25 06:15:00,
2017-02-25 00:20:00,65.5,64.3,29.86,WSW,240,0.0,0.0,96,0.00,,,0.00,Wunderground v.1.15,2017-02-25 06:20:00,
2017-02-25 00:30:00,65.7,64.8,29.86,WSW,238,0.0,0.0,97,0.00,,,0.00,Wunderground v.1.15,2017-02-25 06:30:00,
2017-02-25 00:35:00,65.7,64.8,29.86,SSW,210,0.0,0.0,97,0.00,,,0.00,Wunderground v.1.15,2017-02-25 06:35:00,
2017-02-25 00:40:00,65.6,64.7,29.86,SW,233,0.0,1.0,97,0.00,,,0.00,Wunderground v.1.15,2017-02-25 06:40:00,
2017-02-25 00:45:00,65.6,64.7,29.87,West,273,0.0,1.0,97,0.00,,,0.00,Wunderground v.1.15,2017-02-25 06:45:00,
2017-02-25 00:50:00,65.5,64.6,29.86,SW,226,0.0,0.0,97,0.00,,,0.00,Wunderground v.1.15,2017-02-25 06:50:00,
2017-02-25 01:00:00,65.5,64.6,29.86,WSW,243,0.0,0.0,97,0.00,,,0.00,Wunderground v.1.15,2017-02-25 07:00:00,
2017-02-25 01:05:00,65.5,64.6,29.86,WSW,242,0.0,0.0,97,0.00,,,0.00,Wunderground v.1.15,2017-02-25 07:05:00,
2017-02-25 01:10:00,65.4,64.5,29.86,WSW,242,0.0,0.0,97,0.00,,,0.00,Wunderground v.1.15,2017-02-25 07:10:00,
2017-02-25 01:15:00,65.3,64.4,29.87,WSW,242,0.0,0.0,97,0.00,,,0.00,Wunderground v.1.15,2017-02-25 07:15:00,
2017-02-25 01:20:00,65.3,64.4,29.87,NE,47,0.0,0.0,97,0.00,,,0.00,Wunderground v.1.15,2017-02-25 07:20:00,
2017-02-25 01:25:00,65.3,64.4,29.87,NNW,338,0.0,0.0,97,0.00,,,0.00,Wunderground v.1.15,2017-02-25 07:25:00,
2017-02-25 01:30:00,65.4,64.5,29.87,WSW,247,0.0,0.0,97,0.00,,,0.00,Wunderground v.1.15,2017-02-25 07:30:00,
2017-02-25 01:40:00,65.5,64.6,29.87,WNW,283,0.0,0.0,97,0.00,,,0.00,Wunderground v.1.15,2017-02-25 07:40:00,
2017-02-25 01:45:00,65.5,64.6,29.87,West,260,0.0,1.0,97,0.00,,,0.00,Wunderground v.1.15,2017-02-25 07:45:00,
2017-02-25 01:50:00,65.6,64.7,29.87,WSW,258,0.0,0.0,97,0.00,,,0.00,Wunderground v.1.15,2017-02-25 07:50:00,
2017-02-25 01:55:00,65.7,64.8,29.87,WSW,242,0.0,0.0,97,0.00,,,0.00,Wunderground v.1.15,2017-02-25 07:55:00,
2017-02-25 02:00:00,65.7,64.8,29.87,WSW,250,0.0,0.0,97,0.00,,,0.00,Wunderground v.1.15,2017-02-25 08:00:00,
2017-02-25 02:10:00,65.9,65.0,29.87,WSW,250,0.0,0.0,97,0.00,,,0.00,Wunderground v.1.15,2017-02-25 08:10:00,
2017-02-25 02:15:00,66.0,65.1,29.87,WSW,249,0.0,0.0,97,0.00,,,0.00,Wunderground v.1.15,2017-02-25 08:15:00,
2017-02-25 02:20:00,66.0,65.1,29.87,NW,309,0.0,0.0,97,0.00,,,0.00,Wunderground v.1.15,2017-02-25 08:20:00,
2017-02-25 02:25:00,66.1,65.2,29.87,West,260,0.0,0.0,97,0.00,,,0.00,Wunderground v.1.15,2017-02-25 08:25:00,
2017-02-25 02:35:00,66.1,65.2,29.87,NW,309,0.0,3.0,97,0.00,,,0.00,Wunderground v.1.15,2017-02-25 08:35:00,
2017-02-25 02:40:00,66.1,65.2,29.87,NW,318,1.0,1.0,97,0.00,,,0.00,Wunderground v.1.15,2017-02-25 08:40:00,
2017-02-25 02:45:00,66.3,65.4,29.88,NW,314,1.0,2.0,97,0.00,,,0.00,Wunderground v.1.15,2017-02-25 08:45:00,
2017-02-25 02:50:00,66.5,65.6,29.88,NW,319,2.0,2.0,97,0.00,,,0.00,Wunderground v.1.15,2017-02-25 08:50:00,
2017-02-25 02:55:00,66.6,65.4,29.88,WNW,297,2.0,2.0,96,0.00,,,0.00,Wunderground v.1.15,2017-02-25 08:55:00,
2017-02-25 03:00:00,66.6,65.1,29.88,NW,315,4.0,5.0,95,0.00,,,0.00,Wunderground v.1.15,2017-02-25 09:00:00,
2017-02-25 03:10:00,66.4,64.0,29.88,NW,326,6.0,9.0,92,0.00,,,0.00,Wunderground v.1.15,2017-02-25 09:10:00,
2017-02-25 03:15:00,66.4,62.7,29.89,NNE,13,8.0,12.0,88,0.00,,,0.00,Wunderground v.1.15,2017-02-25 09:15:00,
2017-02-25 03:20:00,66.4,62.1,29.89,WNW,300,9.0,9.0,86,0.00,,,0.00,Wunderground v.1.15,2017-02-25 09:20:00,
2017-02-25 03:25:00,66.2,61.9,29.89,NW,308,8.0,12.0,86,0.00,,,0.00,Wunderground v.1.15,2017-02-25 09:25:00,
2017-02-25 03:30:00,65.9,60.9,29.89,NNW,340,8.0,13.0,84,0.00,,,0.00,Wunderground v.1.15,2017-02-25 09:30:00,
2017-02-25 03:35:00,65.6,60.3,29.90,NW,316,10.0,13.0,83,0.00,,,0.00,Wunderground v.1.15,2017-02-25 09:35:00,
2017-02-25 03:40:00,65.3,60.0,29.90,NW,326,8.0,13.0,83,0.00,,,0.00,Wunderground v.1.15,2017-02-25 09:40:00,
2017-02-25 03:45:00,65.0,59.7,29.90,NW,326,7.0,13.0,83,0.00,,,0.00,Wunderground v.1.15,2017-02-25 09:45:00,
2017-02-25 03:55:00,64.5,58.5,29.90,NNW,332,6.0,6.0,81,0.00,,,0.00,Wunderground v.1.15,2017-02-25 09:55:00,
2017-02-25 04:00:00,64.2,58.2,29.91,NNW,330,6.0,6.0,81,0.00,,,0.00,Wunderground v.1.15,2017-02-25 10:00:00,
2017-02-25 04:05:00,64.0,58.1,29.91,NW,306,6.0,6.0,81,0.00,,,0.00,Wunderground v.1.15,2017-02-25 10:05:00,
2017-02-25 04:10:00,63.8,57.9,29.91,NNW,330,5.0,6.0,81,0.00,,,0.00,Wunderground v.1.15,2017-02-25 10:10:00,
2017-02-25 04:15:00,63.6,57.7,29.91,NNE,15,6.0,6.0,81,0.00,,,0.00,Wunderground v.1.15,2017-02-25 10:15:00,
2017-02-25 04:20:00,63.4,57.1,29.92,NW,326,6.0,8.0,80,0.00,,,0.00,Wunderground v.1.15,2017-02-25 10:20:00,
2017-02-25 04:25:00,63.5,56.5,29.92,NNE,20,8.0,8.0,78,0.00,,,0.00,Wunderground v.1.15,2017-02-25 10:25:00,
2017-02-25 04:30:00,63.4,55.3,29.92,NW,316,7.0,12.0,75,0.00,,,0.00,Wunderground v.1.15,2017-02-25 10:30:00,
2017-02-25 04:40:00,63.3,53.0,29.92,WNW,288,8.0,8.0,69,0.00,,,0.00,Wunderground v.1.15,2017-02-25 10:40:00,
2017-02-25 04:45:00,63.1,52.4,29.93,NNE,20,6.0,8.0,68,0.00,,,0.00,Wunderground v.1.15,2017-02-25 10:45:00,
2017-02-25 04:50:00,62.9,51.4,29.93,NW,315,6.0,11.0,66,0.00,,,0.00,Wunderground v.1.15,2017-02-25 10:50:00,
2017-02-25 04:55:00,62.8,50.9,29.93,NW,326,7.0,11.0,65,0.00,,,0.00,Wunderground v.1.15,2017-02-25 10:55:00,
2017-02-25 05:00:00,62.6,51.1,29.93,NW,318,7.0,8.0,66,0.00,,,0.00,Wunderground v.1.15,2017-02-25 11:00:00,
2017-02-25 05:05:00,62.4,50.5,29.94,WNW,302,6.0,8.0,65,0.00,,,0.00,Wunderground v.1.15,2017-02-25 11:05:00,
2017-02-25 05:10:00,62.3,50.0,29.94,NW,304,7.0,8.0,64,0.00,,,0.00,Wunderground v.1.15,2017-02-25 11:10:00,
2017-02-25 05:20:00,61.8,49.1,29.94,NW,325,6.0,8.0,63,0.00,,,0.00,Wunderground v.1.15,2017-02-25 11:20:00,
2017-02-25 05:30:00,61.3,49.0,29.95,WNW,286,5.0,7.0,64,0.00,,,0.00,Wunderground v.1.15,2017-02-25 11:30:00,
2017-02-25 05:35:00,61.2,48.9,29.95,NW,309,5.0,7.0,64,0.00,,,0.00,Wunderground v.1.15,2017-02-25 11:35:00,
2017-02-25 05:40:00,60.9,48.6,29.95,WNW,301,5.0,5.0,64,0.00,,,0.00,Wunderground v.1.15,2017-02-25 11:40:00,
2017-02-25 05:45:00,60.8,48.5,29.95,WNW,291,5.0,5.0,64,0.00,,,0.00,Wunderground v.1.15,2017-02-25 11:45:00,
2017-02-25 05:55:00,60.4,48.2,29.96,North,349,4.0,6.0,64,0.00,,,0.00,Wunderground v.1.15,2017-02-25 11:55:00,
2017-02-25 06:00:00,60.2,48.0,29.96,NNW,347,4.0,4.0,64,0.00,,,0.00,Wunderground v.1.15,2017-02-25 12:00:00,
2017-02-25 06:05:00,60.1,48.3,29.96,North,354,4.0,7.0,65,0.00,,,0.00,Wunderground v.1.15,2017-02-25 12:05:00,
2017-02-25 06:10:00,60.0,48.6,29.96,NW,307,4.0,4.0,66,0.00,,,0.00,Wunderground v.1.15,2017-02-25 12:10:00,
2017-02-25 06:15:00,59.8,48.4,29.96,NW,321,3.0,4.0,66,0.00,,,0.00,Wunderground v.1.15,2017-02-25 12:15:00,
2017-02-25 06:25:00,59.5,47.7,29.97,NNW,336,4.0,4.0,65,0.00,,,0.00,Wunderground v.1.15,2017-02-25 12:25:00,
2017-02-25 06:30:00,59.3,47.5,29.97,NW,311,3.0,3.0,65,0.00,,,0.00,Wunderground v.1.15,2017-02-25 12:30:00,
2017-02-25 06:35:00,59.1,46.9,29.97,NW,325,3.0,3.0,64,0.00,,,0.00,Wunderground v.1.15,2017-02-25 12:35:00,
2017-02-25 06:40:00,58.9,45.9,29.98,NNW,332,3.0,3.0,62,0.00,,,0.00,Wunderground v.1.15,2017-02-25 12:40:00,
2017-02-25 06:50:00,58.7,45.7,29.98,NW,306,2.0,3.0,62,0.00,,,0.00,Wunderground v.1.15,2017-02-25 12:50:00,
2017-02-25 06:55:00,58.6,45.2,29.98,North,352,2.0,3.0,61,0.00,,,0.00,Wunderground v.1.15,2017-02-25 12:55:00,
2017-02-25 07:00:00,58.5,45.1,29.98,NW,319,2.0,2.0,61,0.00,,,0.00,Wunderground v.1.15,2017-02-25 13:00:00,
2017-02-25 07:05:00,58.6,45.6,29.99,NNW,344,2.0,3.0,62,0.00,,,0.00,Wunderground v.1.15,2017-02-25 13:05:00,
2017-02-25 07:10:00,58.6,45.6,29.99,WNW,282,2.0,2.0,62,0.00,,,0.00,Wunderground v.1.15,2017-02-25 13:10:00,
2017-02-25 07:15:00,58.7,45.3,29.99,WNW,297,2.0,2.0,61,0.00,,,0.00,Wunderground v.1.15,2017-02-25 13:15:00,
2017-02-25 07:20:00,58.9,45.5,29.99,WNW,290,2.0,2.0,61,0.00,,,0.00,Wunderground v.1.15,2017-02-25 13:20:00,
2017-02-25 07:25:00,59.1,45.7,29.99,NNW,343,3.0,3.0,61,0.00,,,0.00,Wunderground v.1.15,2017-02-25 13:25:00,
2017-02-25 07:35:00,59.7,42.0,29.99,NNW,340,4.0,6.0,52,0.00,,,0.00,Wunderground v.1.15,2017-02-25 13:35:00,
2017-02-25 07:40:00,60.2,41.5,30.00,NNE,28,5.0,5.0,50,0.00,,,0.00,Wunderground v.1.15,2017-02-25 13:40:00,
2017-02-25 07:45:00,60.6,39.7,30.00,NW,309,5.0,7.0,46,0.00,,,0.00,Wunderground v.1.15,2017-02-25 13:45:00,
2017-02-25 07:50:00,60.9,37.6,30.00,West,278,5.0,5.0,42,0.00,,,0.00,Wunderground v.1.15,2017-02-25 13:50:00,
2017-02-25 07:55:00,61.1,37.8,30.00,WNW,295,5.0,5.0,42,0.00,,,0.00,Wunderground v.1.15,2017-02-25 13:55:00,
2017-02-25 08:00:00,61.3,37.4,30.00,NE,51,5.0,12.0,41,0.00,,,0.00,Wunderground v.1.15,2017-02-25 14:00:00,
2017-02-25 08:10:00,61.5,38.2,30.00,WNW,283,7.0,7.0,42,0.00,,,0.00,Wunderground v.1.15,2017-02-25 14:10:00,
2017-02-25 08:15:00,61.6,37.7,30.01,NNE,32,6.0,7.0,41,0.00,,,0.00,Wunderground v.1.15,2017-02-25 14:15:00,
2017-02-25 08:20:00,61.9,38.5,30.01,NW,326,5.0,5.0,42,0.00,,,0.00,Wunderground v.1.15,2017-02-25 14:20:00,
2017-02-25 08:25:00,62.1,37.5,30.01,NE,43,5.0,5.0,40,0.00,,,0.00,Wunderground v.1.15,2017-02-25 14:25:00,
2017-02-25 08:30:00,62.3,38.3,30.02,NW,305,6.0,6.0,41,0.00,,,0.00,Wunderground v.1.15,2017-02-25 14:30:00,
2017-02-25 08:35:00,62.6,37.9,30.02,NE,49,5.0,7.0,40,0.00,,,0.00,Wunderground v.1.15,2017-02-25 14:35:00,
2017-02-25 08:40:00,62.6,37.3,30.02,North,7,6.0,8.0,39,0.00,,,0.00,Wunderground v.1.15,2017-02-25 14:40:00,
2017-02-25 08:50:00,62.9,36.2,30.02,NE,44,8.0,8.0,37,0.00,,,0.00,Wunderground v.1.15,2017-02-25 14:50:00,
2017-02-25 08:55:00,63.1,35.0,30.02,NE,42,7.0,13.0,35,0.00,,,0.00,Wunderground v.1.15,2017-02-25 14:55:00,
2017-02-25 09:00:00,63.1,35.7,30.02,NE,49,8.0,8.0,36,0.00,,,0.00,Wunderground v.1.15,2017-02-25 15:00:00,
2017-02-25 09:05:00,63.4,36.7,30.03,NNE,30,8.0,8.0,37,0.00,,,0.00,Wunderground v.1.15,2017-02-25 15:05:00,
2017-02-25 09:10:00,63.7,36.9,30.03,West,281,6.0,6.0,37,0.00,,,0.00,Wunderground v.1.15,2017-02-25 15:10:00,
2017-02-25 09:15:00,63.6,36.1,30.03,North,10,5.0,6.0,36,0.00,,,0.00,Wunderground v.1.15,2017-02-25 15:15:00,
2017-02-25 09:20:00,63.8,36.3,30.03,NNE,26,5.0,5.0,36,0.00,,,0.00,Wunderground v.1.15,2017-02-25 15:20:00,
2017-02-25 09:30:00,63.7,35.5,30.03,NNE,30,7.0,10.0,35,0.00,,,0.00,Wunderground v.1.15,2017-02-25 15:30:00,
2017-02-25 09:35:00,63.7,35.5,30.03,NNE,27,8.0,10.0,35,0.00,,,0.00,Wunderground v.1.15,2017-02-25 15:35:00,
2017-02-25 09:40:00,63.7,38.3,30.03,ENE,64,7.0,7.0,39,0.00,,,0.00,Wunderground v.1.15,2017-02-25 15:40:00,
2017-02-25 09:45:00,63.8,36.3,30.03,NE,38,7.0,7.0,36,0.00,,,0.00,Wunderground v.1.15,2017-02-25 15:45:00,
2017-02-25 09:50:00,64.0,37.2,30.04,NNE,15,7.0,8.0,37,0.00,,,0.00,Wunderground v.1.15,2017-02-25 15:50:00,
2017-02-25 10:00:00,64.5,36.2,30.04,NE,34,6.0,7.0,35,0.00,,,0.00,Wunderground v.1.15,2017-02-25 16:00:00,
2017-02-25 10:10:00,64.8,39.2,30.04,NNE,12,5.0,5.0,39,0.00,,,0.00,Wunderground v.1.15,2017-02-25 16:10:00,
2017-02-25 10:15:00,64.9,36.6,30.04,NNE,13,5.0,9.0,35,0.00,,,0.00,Wunderground v.1.15,2017-02-25 16:15:00,
2017-02-25 10:20:00,64.8,37.2,30.04,NW,305,6.0,9.0,36,0.00,,,0.00,Wunderground v.1.15,2017-02-25 16:20:00,
2017-02-25 10:25:00,65.1,38.2,30.05,ENE,58,6.0,9.0,37,0.00,,,0.00,Wunderground v.1.15,2017-02-25 16:25:00,
2017-02-25 10:35:00,64.8,37.9,30.04,North,358,7.0,7.0,37,0.00,,,0.00,Wunderground v.1.15,2017-02-25 16:35:00,
2017-02-25 10:40:00,65.0,37.4,30.05,NW,312,6.0,6.0,36,0.00,,,0.00,Wunderground v.1.15,2017-02-25 16:40:00,
2017-02-25 10:45:00,65.2,37.6,30.05,NNE,12,5.0,6.0,36,0.00,,,0.00,Wunderground v.1.15,2017-02-25 16:45:00,
2017-02-25 10:55:00,65.3,38.3,30.05,NW,307,5.0,6.0,37,0.00,,,0.00,Wunderground v.1.15,2017-02-25 16:55:00,
2017-02-25 11:00:00,65.7,39.4,30.05,NNE,30,6.0,8.0,38,0.00,,,0.00,Wunderground v.1.15,2017-02-25 17:00:00,
2017-02-25 11:05:00,65.9,38.9,30.06,NW,318,5.0,8.0,37,0.00,,,0.00,Wunderground v.1.15,2017-02-25 17:05:00,
2017-02-25 11:15:00,65.4,40.4,30.06,NNE,24,5.0,5.0,40,0.00,,,0.00,Wunderground v.1.15,2017-02-25 17:15:00,
2017-02-25 11:20:00,65.2,38.3,30.06,North,1,5.0,5.0,37,0.00,,,0.00,Wunderground v.1.15,2017-02-25 17:20:00,
2017-02-25 11:25:00,65.2,37.6,30.05,NNW,327,6.0,6.0,36,0.00,,,0.00,Wunderground v.1.15,2017-02-25 17:25:00,
2017-02-25 11:30:00,65.5,40.5,30.05,NW,313,6.0,6.0,40,0.00,,,0.00,Wunderground v.1.15,2017-02-25 17:30:00,
2017-02-25 11:35:00,65.3,40.3,30.05,NE,44,5.0,6.0,40,0.00,,,0.00,Wunderground v.1.15,2017-02-25 17:35:00,
2017-02-25 11:40:00,65.1,38.8,30.06,NNW,331,6.0,7.0,38,0.00,,,0.00,Wunderground v.1.15,2017-02-25 17:40:00,
2017-02-25 11:45:00,65.0,38.8,30.05,North,353,6.0,7.0,38,0.00,,,0.00,Wunderground v.1.15,2017-02-25 17:45:00,
2017-02-25 11:50:00,64.8,38.6,30.05,NW,314,7.0,7.0,38,0.00,,,0.00,Wunderground v.1.15,2017-02-25 17:50:00,
2017-02-25 11:55:00,64.8,38.6,30.05,NNW,341,6.0,7.0,38,0.00,,,0.00,Wunderground v.1.15,2017-02-25 17:55:00,
2017-02-25 12:05:00,65.1,38.8,30.05,NW,322,6.0,6.0,38,0.00,,,0.00,Wunderground v.1.15,2017-02-25 18:05:00,
2017-02-25 12:10:00,65.0,38.1,30.05,West,271,5.0,5.0,37,0.00,,,0.00,Wunderground v.1.15,2017-02-25 18:10:00,
2017-02-25 12:15:00,64.9,38.0,30.05,NW,309,6.0,6.0,37,0.00,,,0.00,Wunderground v.1.15,2017-02-25 18:15:00,
2017-02-25 12:20:00,65.2,37.6,30.05,WNW,302,6.0,6.0,36,0.00,,,0.00,Wunderground v.1.15,2017-02-25 18:20:00,
2017-02-25 12:30:00,65.1,38.8,30.04,NW,311,6.0,6.0,38,0.00,,,0.00,Wunderground v.1.15,2017-02-25 18:30:00,
2017-02-25 12:35:00,65.3,39.7,30.04,North,351,6.0,8.0,39,0.00,,,0.00,Wunderground v.1.15,2017-02-25 18:35:00,
2017-02-25 12:40:00,65.5,40.5,30.04,NW,307,6.0,8.0,40,0.00,,,0.00,Wunderground v.1.15,2017-02-25 18:40:00,
2017-02-25 12:45:00,65.5,39.2,30.04,WNW,291,6.0,8.0,38,0.00,,,0.00,Wunderground v.1.15,2017-02-25 18:45:00,
2017-02-25 12:55:00,65.6,37.9,30.04,NNW,327,6.0,9.0,36,0.00,,,0.00,Wunderground v.1.15,2017-02-25 18:55:00,
2017-02-25 13:00:00,65.9,39.6,30.04,NW,314,6.0,6.0,38,0.00,,,0.00,Wunderground v.1.15,2017-02-25 19:00:00,
2017-02-25 13:05:00,66.2,39.1,30.04,NNE,23,6.0,6.0,37,0.00,,,0.00,Wunderground v.1.15,2017-02-25 19:05:00,
2017-02-25 13:10:00,66.4,38.6,30.04,NW,324,5.0,5.0,36,0.00,,,0.00,Wunderground v.1.15,2017-02-25 19:10:00,